Time;durP1;ratioP1;P1;durP2;ratioP2;P2;SDS_P1;SDS_P2;PMS_P1;PMS_P2;Temp;Humidity;BMP_temperature;BMP_pressure;BME280_temperature;BME280_humidity;BME280_pressure;Samples;Min_cycle;Max_cycle;Signal;HPM_P1;HPM_P2
2022/11/17 00:01:41;;;;;;;25.20;12.85;;;8.80;99.90;;;;;;5051115;28;20105;-66
2022/11/17 00:04:07;;;;;;;24.13;11.65;;;8.80;99.90;;;;;;5051093;28;20052;-67
2022/11/17 00:06:33;;;;;;;26.20;13.07;;;8.80;99.90;;;;;;5050932;28;20041;-67
2022/11/17 00:08:58;;;;;;;28.80;12.70;;;8.80;99.90;;;;;;5051289;28;20048;-67
2022/11/17 00:11:24;;;;;;;27.42;13.52;;;8.90;99.90;;;;;;5050984;28;20116;-67
2022/11/17 00:16:34;;;;;;;26.30;13.48;;;8.90;99.90;;;;;;5051265;28;20057;-67
2022/11/17 00:21:43;;;;;;;25.15;12.60;;;8.80;99.90;;;;;;5051243;28;20458;-66
2022/11/17 00:24:09;;;;;;;24.23;12.40;;;8.80;99.90;;;;;;5050628;28;20103;-66
2022/11/17 00:27:00;;;;;;;23.02;12.55;;;8.80;99.90;;;;;;5051065;28;20087;-67
2022/11/17 00:29:21;;;;;;;28.25;12.95;;;8.90;99.90;;;;;;5050816;28;20484;-67
2022/11/17 00:34:31;;;;;;;26.20;12.27;;;8.80;99.90;;;;;;5050601;28;20045;-66
2022/11/17 00:36:56;;;;;;;23.30;12.32;;;8.90;99.90;;;;;;5050926;28;20128;-67
2022/11/17 00:39:22;;;;;;;24.90;12.48;;;8.80;99.90;;;;;;5050607;28;20049;-67
2022/11/17 00:41:48;;;;;;;22.17;12.05;;;8.90;99.90;;;;;;5050803;28;20386;-66
2022/11/17 00:44:15;;;;;;;25.52;12.43;;;8.90;99.90;;;;;;5050418;28;20044;-67
2022/11/17 00:46:41;;;;;;;24.60;12.65;;;8.80;99.90;;;;;;5049502;28;20390;-67
2022/11/17 00:49:08;;;;;;;22.35;12.52;;;8.80;99.90;;;;;;5050615;28;20048;-67
2022/11/17 00:51:35;;;;;;;25.63;10.90;;;8.80;99.90;;;;;;5050895;28;20041;-66
2022/11/17 00:54:01;;;;;;;22.58;12.52;;;8.90;99.90;;;;;;5050224;28;20122;-67
2022/11/17 00:56:27;;;;;;;20.05;11.32;;;8.90;99.90;;;;;;5050922;28;20049;-66
2022/11/17 00:58:53;;;;;;;23.25;11.68;;;8.80;99.90;;;;;;5050539;28;20071;-67
2022/11/17 01:01:19;;;;;;;22.02;11.43;;;8.90;99.90;;;;;;5050578;28;20174;-66
2022/11/17 01:03:44;;;;;;;19.92;11.52;;;8.90;99.90;;;;;;5050336;28;20041;-67
2022/11/17 01:06:13;;;;;;;18.40;11.98;;;8.90;99.90;;;;;;5050325;28;20059;-67
2022/11/17 01:08:39;;;;;;;20.90;11.43;;;8.80;99.90;;;;;;5050648;28;20037;-67
2022/11/17 01:11:14;;;;;;;20.63;11.02;;;8.80;99.90;;;;;;5050746;28;20379;-66
2022/11/17 01:13:40;;;;;;;20.05;10.93;;;8.90;99.90;;;;;;5049104;28;20047;-67
2022/11/17 01:16:09;;;;;;;20.88;11.20;;;8.80;99.90;;;;;;5048873;28;20088;-66
2022/11/17 01:18:36;;;;;;;18.40;10.77;;;8.80;99.90;;;;;;5050469;28;20441;-66
2022/11/17 01:21:03;;;;;;;20.10;10.82;;;8.80;99.90;;;;;;5050106;28;20064;-66
2022/11/17 01:23:29;;;;;;;21.60;11.32;;;8.80;99.90;;;;;;5050036;28;20072;-66
2022/11/17 01:26:01;;;;;;;16.55;10.65;;;8.80;99.90;;;;;;5049974;28;20075;-66
2022/11/17 01:28:26;;;;;;;18.88;10.98;;;8.80;99.90;;;;;;5050435;28;20063;-67
2022/11/17 01:30:59;;;;;;;19.30;10.18;;;8.80;99.90;;;;;;5050057;28;20037;-67
2022/11/17 01:33:24;;;;;;;20.00;10.55;;;8.80;99.90;;;;;;5050299;28;20048;-67
2022/11/17 01:35:50;;;;;;;19.65;10.15;;;8.80;99.90;;;;;;5050046;28;20044;-66
2022/11/17 01:38:15;;;;;;;17.65;11.23;;;8.80;99.90;;;;;;5050411;28;20052;-67
2022/11/17 01:40:41;;;;;;;18.17;10.32;;;8.80;99.90;;;;;;5048805;28;20045;-66
2022/11/17 01:43:10;;;;;;;18.75;10.15;;;8.80;99.90;;;;;;5049945;28;20861;-67
2022/11/17 01:45:36;;;;;;;18.48;10.45;;;8.80;99.90;;;;;;5048513;28;20403;-67
2022/11/17 01:48:04;;;;;;;18.85;10.82;;;8.80;99.90;;;;;;5050100;28;20033;-67
2022/11/17 01:50:39;;;;;;;19.02;10.13;;;8.90;99.90;;;;;;5053004;28;20047;-66
2022/11/17 01:53:09;;;;;;;16.67;9.90;;;8.80;99.90;;;;;;5053861;28;20045;-67
2022/11/17 01:55:55;;;;;;;15.10;9.15;;;8.80;99.90;;;;;;5053608;28;20048;-66
2022/11/17 01:58:26;;;;;;;15.82;9.52;;;8.80;99.90;;;;;;5053710;28;20148;-67
2022/11/17 02:00:52;;;;;;;20.27;10.40;;;8.80;99.90;;;;;;5053494;28;20049;-67
2022/11/17 02:03:18;;;;;;;19.10;10.13;;;8.80;99.90;;;;;;5052088;28;20053;-67
2022/11/17 02:06:15;;;;;;;18.30;9.48;;;8.80;99.90;;;;;;5053217;28;20033;-66
2022/11/17 02:08:43;;;;;;;20.25;10.35;;;8.80;99.90;;;;;;5053534;28;20421;-66
2022/11/17 02:11:13;;;;;;;20.38;9.95;;;8.80;99.90;;;;;;5053620;28;20045;-66
2022/11/17 02:13:39;;;;;;;16.23;9.65;;;8.80;99.90;;;;;;5053376;28;20048;-67
2022/11/17 02:16:10;;;;;;;21.63;9.68;;;8.80;99.90;;;;;;5053325;28;20048;-66
2022/11/17 02:18:35;;;;;;;17.60;10.00;;;8.80;99.90;;;;;;5053003;28;20137;-67
2022/11/17 02:21:01;;;;;;;15.30;8.95;;;8.80;99.90;;;;;;5053176;28;20087;-67
2022/11/17 02:23:45;;;;;;;14.15;9.30;;;8.80;99.90;;;;;;5053113;28;20051;-67
2022/11/17 02:26:39;;;;;;;16.58;10.13;;;8.80;99.90;;;;;;5051853;28;20048;-67
2022/11/17 02:29:23;;;;;;;17.45;10.15;;;8.70;99.90;;;;;;5053311;28;20041;-67
2022/11/17 02:32:09;;;;;;;18.52;10.25;;;8.70;99.90;;;;;;5053120;28;20468;-68
2022/11/17 02:34:47;;;;;;;17.33;9.93;;;8.80;99.90;;;;;;5052774;28;20094;-67
2022/11/17 02:37:36;;;;;;;20.35;10.63;;;8.70;99.90;;;;;;5053168;28;20048;-68
2022/11/17 02:40:26;;;;;;;17.33;10.00;;;8.70;99.90;;;;;;5053048;28;20120;-68
2022/11/17 02:46:02;;;;;;;18.90;10.07;;;8.60;99.90;;;;;;5051227;28;20049;-68
2022/11/17 02:48:33;;;;;;;16.92;10.70;;;8.70;99.90;;;;;;5052916;28;20051;-71
2022/11/17 02:51:00;;;;;;;16.98;10.20;;;8.60;99.90;;;;;;5051597;28;20086;-71
2022/11/17 02:53:27;;;;;;;17.13;10.23;;;8.60;99.90;;;;;;5052389;28;20045;-72
2022/11/17 02:55:53;;;;;;;16.73;9.68;;;8.60;99.90;;;;;;5052657;28;20048;-71
2022/11/17 02:58:19;;;;;;;18.92;10.38;;;8.60;99.90;;;;;;5052388;28;20037;-72
2022/11/17 03:01:32;;;;;;;22.38;10.52;;;8.60;99.90;;;;;;5050389;28;20043;-72
2022/11/17 03:04:43;;;;;;;22.10;10.55;;;8.50;99.90;;;;;;5050816;28;20128;-72
2022/11/17 03:07:46;;;;;;;20.45;10.45;;;8.50;99.90;;;;;;5052505;28;20041;-71
2022/11/17 03:10:27;;;;;;;21.80;10.82;;;8.50;99.90;;;;;;5052168;28;20401;-70
2022/11/17 03:13:11;;;;;;;19.05;10.10;;;8.50;99.90;;;;;;5052425;28;20041;-70
2022/11/17 03:16:01;;;;;;;16.45;9.82;;;8.50;99.90;;;;;;5051903;28;20052;-71
2022/11/17 03:18:41;;;;;;;21.83;10.77;;;8.50;99.90;;;;;;5050948;28;20041;-72
2022/11/17 03:21:18;;;;;;;15.57;9.73;;;8.40;99.90;;;;;;5051026;28;20049;-74
2022/11/17 03:23:50;;;;;;;20.42;10.75;;;8.40;99.90;;;;;;5050575;28;20047;-74
2022/11/17 03:26:27;;;;;;;17.40;10.20;;;8.40;99.90;;;;;;5050701;28;20048;-75
2022/11/17 03:28:54;;;;;;;17.83;9.48;;;8.40;99.90;;;;;;5052278;28;20040;-72
2022/11/17 03:31:21;;;;;;;23.85;10.85;;;8.40;99.90;;;;;;5051951;28;20108;-71
2022/11/17 03:33:48;;;;;;;16.50;10.13;;;8.40;99.90;;;;;;5050396;28;20055;-72
2022/11/17 03:36:18;;;;;;;17.65;9.70;;;8.40;99.90;;;;;;5050537;28;20059;-73
2022/11/17 03:38:51;;;;;;;17.08;9.77;;;8.40;99.90;;;;;;5050655;28;20060;-74
2022/11/17 03:41:18;;;;;;;19.98;10.15;;;8.40;99.90;;;;;;5051805;28;20056;-73
2022/11/17 03:43:47;;;;;;;16.30;9.60;;;8.40;99.90;;;;;;5050294;28;20045;-67
2022/11/17 03:46:15;;;;;;;17.42;9.20;;;8.40;99.90;;;;;;5051838;28;20043;-67
2022/11/17 03:49:02;;;;;;;16.52;9.48;;;8.30;99.90;;;;;;5051766;28;20036;-67
2022/11/17 03:51:30;;;;;;;17.17;9.93;;;8.40;99.90;;;;;;5051441;28;20056;-67
2022/11/17 03:53:56;;;;;;;14.18;8.43;;;8.30;99.90;;;;;;5049960;28;20041;-66
2022/11/17 03:56:43;;;;;;;16.83;9.15;;;8.30;99.90;;;;;;5051594;28;20175;-66
2022/11/17 03:59:17;;;;;;;16.65;9.43;;;8.30;99.90;;;;;;5051442;28;20120;-66
2022/11/17 04:01:43;;;;;;;15.85;8.60;;;8.40;99.90;;;;;;5049978;28;20049;-67
2022/11/17 04:04:17;;;;;;;15.88;9.50;;;8.30;99.90;;;;;;5051258;28;20045;-67
2022/11/17 04:06:43;;;;;;;14.02;7.75;;;8.30;99.90;;;;;;5050202;28;20037;-72
2022/11/17 04:09:09;;;;;;;13.05;8.45;;;8.30;99.90;;;;;;5050039;28;20134;-73
2022/11/17 04:17:02;;;;;;;15.07;8.40;;;8.30;99.90;;;;;;5049811;28;20058;-69
2022/11/17 04:19:28;;;;;;;12.13;8.23;;;8.30;99.90;;;;;;5049895;28;20501;-67
2022/11/17 04:21:53;;;;;;;13.63;8.75;;;8.30;99.90;;;;;;5051049;28;20529;-66
2022/11/17 04:24:19;;;;;;;15.07;8.98;;;8.30;99.90;;;;;;5051067;28;20121;-66
2022/11/17 04:29:29;;;;;;;13.88;8.35;;;8.30;99.90;;;;;;5051326;28;20037;-66
2022/11/17 04:31:54;;;;;;;14.43;7.55;;;8.30;99.90;;;;;;5051105;28;20041;-66
2022/11/17 04:34:20;;;;;;;15.70;8.15;;;8.30;99.90;;;;;;5050797;28;20481;-66
2022/11/17 04:36:45;;;;;;;15.98;7.70;;;8.30;99.90;;;;;;5051247;28;20097;-66
2022/11/17 04:39:13;;;;;;;14.10;7.90;;;8.20;99.90;;;;;;5050807;28;20072;-66
2022/11/17 04:41:55;;;;;;;13.65;8.02;;;8.20;99.90;;;;;;5050613;28;20074;-67
2022/11/17 04:44:25;;;;;;;14.57;8.15;;;8.20;99.90;;;;;;5050377;28;20087;-67
2022/11/17 04:46:52;;;;;;;11.80;8.05;;;8.10;99.90;;;;;;5050753;28;20036;-66
2022/11/17 04:49:18;;;;;;;14.95;8.05;;;8.20;99.90;;;;;;5049338;28;20048;-66
2022/11/17 04:51:45;;;;;;;11.55;7.82;;;8.10;99.90;;;;;;5050935;28;20037;-67
2022/11/17 04:54:13;;;;;;;15.07;8.90;;;8.10;99.90;;;;;;5050451;28;20051;-66
2022/11/17 04:56:38;;;;;;;12.85;7.40;;;8.10;99.90;;;;;;5049399;28;20115;-67
2022/11/17 04:59:05;;;;;;;11.30;7.40;;;8.10;99.90;;;;;;5050417;28;20584;-67
2022/11/17 05:01:31;;;;;;;12.57;7.53;;;8.10;99.90;;;;;;5050656;28;20067;-66
2022/11/17 05:04:02;;;;;;;13.93;7.68;;;8.10;99.90;;;;;;5050207;28;20494;-67
2022/11/17 05:06:36;;;;;;;10.48;7.10;;;8.10;99.90;;;;;;5050334;28;20044;-66
2022/11/17 05:09:05;;;;;;;10.70;6.65;;;8.00;99.90;;;;;;5050779;28;20037;-66
2022/11/17 05:14:31;;;;;;;12.00;7.57;;;8.00;99.90;;;;;;5027743;28;20526;-67
2022/11/17 05:17:08;;;;;;;13.77;7.32;;;8.00;99.90;;;;;;5045668;28;20067;-66
2022/11/17 05:19:45;;;;;;;8.88;6.38;;;8.00;99.90;;;;;;5049356;28;20405;-67
2022/11/17 05:25:07;;;;;;;10.73;6.55;;;7.90;99.90;;;;;;5052666;28;20397;-66
2022/11/17 05:27:34;;;;;;;13.32;7.93;;;7.80;99.90;;;;;;5054609;28;20045;-66
2022/11/17 05:30:04;;;;;;;10.10;6.95;;;7.80;99.90;;;;;;5054198;28;20033;-66
2022/11/17 05:32:29;;;;;;;8.60;6.15;;;7.80;99.90;;;;;;5054200;28;20082;-66
2022/11/17 05:34:55;;;;;;;10.70;7.47;;;7.80;99.90;;;;;;5053973;28;20033;-66
2022/11/17 05:37:20;;;;;;;12.32;6.57;;;7.70;99.90;;;;;;5052309;28;20068;-66
2022/11/17 05:39:46;;;;;;;11.55;7.18;;;7.80;99.90;;;;;;5054050;28;20421;-66
2022/11/17 05:42:11;;;;;;;11.25;6.97;;;7.80;99.90;;;;;;5053463;28;20052;-67
2022/11/17 05:44:38;;;;;;;9.48;6.68;;;7.70;99.90;;;;;;5053805;28;20086;-67
2022/11/17 05:47:04;;;;;;;9.45;7.03;;;7.70;99.90;;;;;;5054155;28;20064;-67
2022/11/17 05:49:29;;;;;;;11.20;6.93;;;7.60;99.90;;;;;;5054062;28;20028;-68
2022/11/17 05:51:55;;;;;;;10.70;6.45;;;7.70;99.90;;;;;;5053627;28;20043;-69
2022/11/17 05:54:20;;;;;;;11.70;6.43;;;7.60;99.90;;;;;;5035937;28;20174;-67
2022/11/17 05:57:00;;;;;;;11.70;7.40;;;7.60;99.90;;;;;;5053746;28;20041;-68
2022/11/17 05:59:46;;;;;;;9.23;6.28;;;7.70;99.90;;;;;;5052424;28;20067;-67
2022/11/17 06:02:18;;;;;;;10.13;6.10;;;7.70;99.90;;;;;;5053596;28;20033;-66
2022/11/17 06:04:45;;;;;;;9.38;6.57;;;7.60;99.90;;;;;;5053265;28;20497;-67
2022/11/17 06:07:11;;;;;;;8.32;5.90;;;7.50;99.90;;;;;;5053263;28;20037;-66
2022/11/17 06:09:40;;;;;;;9.95;6.55;;;7.60;99.90;;;;;;5053400;28;20044;-67
2022/11/17 06:12:06;;;;;;;12.13;6.82;;;7.60;99.90;;;;;;5053376;28;20043;-66
2022/11/17 06:14:32;;;;;;;11.95;6.30;;;7.50;99.90;;;;;;5053328;28;20119;-66
2022/11/17 06:17:03;;;;;;;10.75;6.43;;;7.50;99.90;;;;;;5053478;28;20045;-66
2022/11/17 06:19:36;;;;;;;9.55;6.00;;;7.50;99.90;;;;;;5052123;28;20120;-67
2022/11/17 06:22:02;;;;;;;10.30;6.50;;;7.50;99.90;;;;;;5051783;28;20048;-66
2022/11/17 06:24:28;;;;;;;9.88;6.30;;;7.50;99.90;;;;;;5052939;28;20048;-66
2022/11/17 06:26:53;;;;;;;8.93;5.45;;;7.50;99.90;;;;;;5053113;28;20059;-67
2022/11/17 06:29:19;;;;;;;9.15;6.30;;;7.50;99.90;;;;;;5053311;28;20084;-66
2022/11/17 06:31:45;;;;;;;8.60;5.90;;;7.50;99.90;;;;;;5052867;28;20075;-67
2022/11/17 06:34:11;;;;;;;8.13;5.55;;;7.50;99.90;;;;;;5051646;28;20400;-66
2022/11/17 06:36:37;;;;;;;10.50;5.70;;;7.50;99.90;;;;;;5052962;28;20056;-66
2022/11/17 06:39:03;;;;;;;8.23;6.15;;;7.40;99.90;;;;;;5052819;28;20044;-67
2022/11/17 06:41:29;;;;;;;8.15;5.57;;;7.40;99.90;;;;;;5051453;28;20513;-66
2022/11/17 06:43:55;;;;;;;8.30;5.93;;;7.50;99.90;;;;;;5052642;28;20086;-66
2022/11/17 06:46:20;;;;;;;8.00;5.65;;;7.40;99.90;;;;;;5053159;28;20032;-67
2022/11/17 06:48:46;;;;;;;11.43;6.10;;;7.40;99.90;;;;;;5052577;28;20585;-67
2022/11/17 06:51:11;;;;;;;9.27;6.07;;;7.40;99.90;;;;;;5052833;28;20044;-67
2022/11/17 06:53:37;;;;;;;6.57;5.03;;;7.40;99.90;;;;;;5052854;28;20055;-66
2022/11/17 06:56:10;;;;;;;7.60;5.65;;;7.40;99.90;;;;;;5052411;28;20049;-67
2022/11/17 06:58:38;;;;;;;9.88;5.43;;;7.40;99.90;;;;;;5052590;28;20155;-66
2022/11/17 07:01:06;;;;;;;8.65;5.30;;;7.40;99.90;;;;;;5052797;28;20098;-66
2022/11/17 07:03:36;;;;;;;9.57;6.20;;;7.40;99.90;;;;;;5051168;28;20037;-68
2022/11/17 07:06:07;;;;;;;8.50;5.45;;;7.40;99.90;;;;;;5051002;28;20498;-66
2022/11/17 07:08:33;;;;;;;6.20;4.95;;;7.40;99.90;;;;;;5052657;28;20067;-67
2022/11/17 07:11:07;;;;;;;6.85;5.18;;;7.40;99.90;;;;;;5051046;28;20523;-66
2022/11/17 07:13:33;;;;;;;7.40;4.95;;;7.40;99.90;;;;;;5052104;28;20523;-67
2022/11/17 07:16:06;;;;;;;13.02;5.82;;;7.40;99.90;;;;;;5051825;28;20037;-66
2022/11/17 07:18:32;;;;;;;6.43;4.80;;;7.40;99.90;;;;;;5052342;28;20084;-66
2022/11/17 07:21:02;;;;;;;10.77;6.07;;;7.30;99.90;;;;;;5049786;28;20076;-66
2022/11/17 07:23:29;;;;;;;8.25;5.30;;;7.40;99.90;;;;;;5051895;28;20501;-66
2022/11/17 07:25:55;;;;;;;7.63;5.22;;;7.30;99.90;;;;;;5049930;28;20429;-66
2022/11/17 07:28:20;;;;;;;7.28;5.35;;;7.30;99.90;;;;;;5049354;28;20037;-66
2022/11/17 07:30:46;;;;;;;6.82;5.20;;;7.30;99.90;;;;;;5048905;28;20043;-66
2022/11/17 07:33:12;;;;;;;6.28;4.90;;;7.30;99.90;;;;;;5048982;28;20045;-66
2022/11/17 07:35:38;;;;;;;7.45;5.57;;;7.30;99.90;;;;;;5049489;28;20044;-66
2022/11/17 07:38:03;;;;;;;7.68;4.68;;;7.30;99.90;;;;;;5048992;28;20119;-68
2022/11/17 07:40:30;;;;;;;10.35;6.05;;;7.40;99.90;;;;;;5049374;28;20148;-66
2022/11/17 07:42:56;;;;;;;8.40;5.68;;;7.40;99.90;;;;;;5050987;28;20090;-66
2022/11/17 07:45:23;;;;;;;9.10;5.65;;;7.40;99.90;;;;;;5051161;28;20037;-66
2022/11/17 07:47:54;;;;;;;8.75;5.78;;;7.40;99.90;;;;;;5050832;28;20048;-66
2022/11/17 07:50:19;;;;;;;7.60;5.07;;;7.30;99.90;;;;;;5049002;28;20041;-66
2022/11/17 07:52:47;;;;;;;10.70;6.05;;;7.40;99.90;;;;;;5048665;28;20047;-67
2022/11/17 07:55:13;;;;;;;9.00;6.40;;;7.40;99.90;;;;;;5024021;28;20057;-66
2022/11/17 07:57:38;;;;;;;6.95;5.55;;;7.40;99.90;;;;;;5049987;28;20504;-66
2022/11/17 08:00:04;;;;;;;9.63;6.47;;;7.30;99.90;;;;;;5051778;28;20045;-66
2022/11/17 08:02:30;;;;;;;9.02;5.40;;;7.40;99.90;;;;;;5051281;28;20045;-67
2022/11/17 08:04:55;;;;;;;9.07;6.03;;;7.30;99.90;;;;;;5051444;28;20062;-69
2022/11/17 08:07:21;;;;;;;10.45;5.90;;;7.40;99.90;;;;;;5051285;28;20043;-72
2022/11/17 08:09:47;;;;;;;11.65;6.28;;;7.30;99.90;;;;;;5033422;28;20045;-73
2022/11/17 08:12:12;;;;;;;9.40;6.28;;;7.30;99.90;;;;;;5049843;28;20076;-68
2022/11/17 08:14:38;;;;;;;10.38;6.57;;;7.40;99.90;;;;;;5051065;28;20149;-71
2022/11/17 08:17:03;;;;;;;9.90;6.20;;;7.40;99.90;;;;;;5050027;28;20044;-72
2022/11/17 08:19:29;;;;;;;9.27;6.57;;;7.30;99.90;;;;;;5051199;28;20041;-72
2022/11/17 08:21:54;;;;;;;9.55;6.82;;;7.30;99.90;;;;;;5051035;28;20389;-73
2022/11/17 08:24:20;;;;;;;13.40;7.18;;;7.40;99.90;;;;;;5049801;28;20037;-72
2022/11/17 08:26:45;;;;;;;9.50;7.07;;;7.40;99.90;;;;;;5049597;28;20132;-73
2022/11/17 08:29:11;;;;;;;8.98;6.47;;;7.40;99.90;;;;;;5049920;28;20064;-74
2022/11/17 08:31:37;;;;;;;11.00;6.78;;;7.40;99.90;;;;;;5049636;28;20052;-69
2022/11/17 08:34:03;;;;;;;11.20;6.68;;;7.30;99.90;;;;;;5049602;28;20059;-69
2022/11/17 08:36:28;;;;;;;12.90;7.40;;;7.40;99.90;;;;;;5049719;28;20068;-67
2022/11/17 08:38:54;;;;;;;10.60;7.20;;;7.40;99.90;;;;;;5051130;28;20036;-67
2022/11/17 08:41:20;;;;;;;11.80;6.78;;;7.40;99.90;;;;;;5050246;28;20044;-66
2022/11/17 08:43:46;;;;;;;9.38;6.88;;;7.40;99.90;;;;;;5050430;28;20122;-68
2022/11/17 08:46:12;;;;;;;10.80;6.93;;;7.40;99.90;;;;;;5050983;28;20410;-68
2022/11/17 08:48:38;;;;;;;9.60;7.13;;;7.40;99.90;;;;;;5050503;28;20048;-67
2022/11/17 08:51:05;;;;;;;11.35;5.78;;;7.40;99.90;;;;;;5050745;28;20040;-67
2022/11/17 08:53:31;;;;;;;9.18;6.32;;;7.40;99.90;;;;;;5050504;28;20044;-67
2022/11/17 08:55:57;;;;;;;8.32;5.72;;;7.40;99.90;;;;;;5050673;28;20521;-67
2022/11/17 08:58:22;;;;;;;8.90;6.38;;;7.40;99.90;;;;;;5050624;28;20548;-67
2022/11/17 09:00:48;;;;;;;8.40;6.20;;;7.40;99.90;;;;;;5054559;28;20048;-67
2022/11/17 09:03:13;;;;;;;6.95;5.43;;;7.40;99.90;;;;;;5054662;28;20090;-67
2022/11/17 09:05:41;;;;;;;8.88;6.07;;;7.50;99.90;;;;;;5054581;28;20043;-67
2022/11/17 09:08:08;;;;;;;9.00;5.78;;;7.50;99.90;;;;;;5054603;28;20077;-67
2022/11/17 09:10:36;;;;;;;8.32;5.68;;;7.50;99.90;;;;;;5053401;28;20075;-67
2022/11/17 09:13:02;;;;;;;11.45;5.90;;;7.50;99.90;;;;;;5054431;28;20445;-68
2022/11/17 09:15:28;;;;;;;8.00;5.78;;;7.60;99.90;;;;;;5036314;28;20049;-70
2022/11/17 09:17:54;;;;;;;7.97;5.30;;;7.60;99.90;;;;;;5053255;28;20407;-70
2022/11/17 09:20:20;;;;;;;8.57;5.32;;;7.50;99.90;;;;;;5054465;28;20040;-67
2022/11/17 09:22:46;;;;;;;7.45;5.47;;;7.60;99.90;;;;;;5054330;28;20044;-67
2022/11/17 09:25:12;;;;;;;9.18;6.60;;;7.60;99.90;;;;;;5054055;28;20429;-69
2022/11/17 09:27:38;;;;;;;6.53;5.25;;;7.70;99.90;;;;;;5053632;28;20056;-74
2022/11/17 09:30:06;;;;;;;6.28;5.55;;;7.60;99.90;;;;;;5053094;28;20033;-74
2022/11/17 09:32:35;;;;;;;6.38;5.20;;;7.60;99.90;;;;;;5053182;28;20033;-73
2022/11/17 09:35:05;;;;;;;6.53;4.72;;;7.60;99.90;;;;;;5052645;28;20064;-74
2022/11/17 09:37:30;;;;;;;5.57;4.78;;;7.60;99.90;;;;;;5052734;28;20037;-74
2022/11/17 09:39:56;;;;;;;6.43;4.93;;;7.60;99.90;;;;;;5052591;28;20132;-73
2022/11/17 09:42:21;;;;;;;7.13;4.65;;;7.60;99.90;;;;;;5052516;28;20558;-71
2022/11/17 09:44:56;;;;;;;6.72;4.75;;;7.60;99.90;;;;;;5052298;28;20492;-71
2022/11/17 09:48:03;;;;;;;5.78;4.47;;;7.60;99.90;;;;;;5052801;28;20037;-69
2022/11/17 09:50:34;;;;;;;6.68;4.40;;;7.60;99.90;;;;;;5054015;28;20048;-67
2022/11/17 09:53:04;;;;;;;5.57;4.75;;;7.60;99.90;;;;;;5054203;28;20041;-67
2022/11/17 09:55:34;;;;;;;5.15;4.40;;;7.60;99.90;;;;;;5052408;28;20079;-69
2022/11/17 09:58:25;;;;;;;8.32;4.97;;;7.60;99.90;;;;;;5053837;28;20045;-72
2022/11/17 10:00:52;;;;;;;5.40;4.68;;;7.60;99.90;;;;;;5051521;28;20127;-72
2022/11/17 10:03:36;;;;;;;5.72;4.43;;;7.60;99.90;;;;;;5052129;28;20096;-73
2022/11/17 10:06:15;;;;;;;6.32;5.05;;;7.70;99.90;;;;;;5052631;28;20363;-72
2022/11/17 10:08:57;;;;;;;8.48;5.03;;;7.70;99.90;;;;;;5052434;28;20048;-70
2022/11/17 10:11:31;;;;;;;8.17;5.93;;;7.70;99.90;;;;;;5051611;28;20041;-69
2022/11/17 10:14:07;;;;;;;5.90;4.97;;;7.70;99.90;;;;;;5053480;28;20272;-70
2022/11/17 10:16:33;;;;;;;5.88;4.70;;;7.70;99.90;;;;;;5053716;28;20041;-72
2022/11/17 10:19:26;;;;;;;7.18;5.25;;;7.70;99.90;;;;;;5053426;28;20497;-69
2022/11/17 10:22:12;;;;;;;;;;;7.80;99.90;;;;;;5051868;28;20055;-67
2022/11/17 10:24:46;;;;;;;6.60;4.22;;;7.80;99.90;;;;;;5048797;28;19931;-67
2022/11/17 10:27:31;;;;;;;10.30;4.57;;;7.80;99.90;;;;;;5053513;28;20434;-66
2022/11/17 10:30:02;;;;;;;7.78;5.75;;;7.80;99.90;;;;;;5050335;28;20269;-67
2022/11/17 10:32:31;;;;;;;6.78;5.13;;;7.90;99.90;;;;;;5052258;28;20044;-67
2022/11/17 10:35:19;;;;;;;6.28;5.10;;;7.90;99.90;;;;;;5052215;28;20417;-67
2022/11/17 10:37:58;;;;;;;5.80;5.10;;;8.00;99.90;;;;;;5052775;28;20112;-67
2022/11/17 10:40:30;;;;;;;8.23;6.65;;;8.00;99.90;;;;;;5050865;28;20049;-67
2022/11/17 10:43:13;;;;;;;6.97;5.45;;;8.00;99.90;;;;;;5052373;28;20494;-67
2022/11/17 10:46:00;;;;;;;8.90;5.45;;;8.00;99.90;;;;;;5051832;28;20040;-67
2022/11/17 10:48:36;;;;;;;6.50;5.40;;;8.00;99.90;;;;;;5052422;28;20110;-67
2022/11/17 10:51:18;;;;;;;5.90;4.75;;;8.00;99.90;;;;;;5049427;28;20036;-67
2022/11/17 10:54:02;;;;;;;7.90;5.10;;;8.00;99.90;;;;;;5052102;28;20049;-75
2022/11/17 10:56:28;;;;;;;5.32;4.60;;;8.00;99.90;;;;;;5050914;28;20047;-72
2022/11/17 10:59:11;;;;;;;4.97;4.18;;;8.00;99.90;;;;;;5050528;28;20127;-78
2022/11/17 11:01:41;;;;;;;;;;;8.00;99.90;;;;;;5051388;28;20476;-73
2022/11/17 11:04:32;;;;;;;4.90;4.40;;;8.00;99.90;;;;;;5050101;28;19924;-72
2022/11/17 11:07:13;;;;;;;6.45;3.95;;;8.20;99.90;;;;;;5051423;28;20745;-73
2022/11/17 11:09:59;;;;;;;4.82;3.75;;;8.10;99.90;;;;;;5034135;28;20040;-74
2022/11/17 11:12:40;;;;;;;5.88;4.50;;;8.10;99.90;;;;;;5051196;28;20186;-72
2022/11/17 11:15:22;;;;;;;6.97;4.43;;;8.10;99.90;;;;;;5051840;28;20048;-70
2022/11/17 11:17:48;;;;;;;4.80;4.07;;;8.10;99.90;;;;;;5051889;28;20079;-68
2022/11/17 11:20:16;;;;;;;6.35;4.45;;;8.10;99.90;;;;;;5052210;28;20040;-68
2022/11/17 11:23:07;;;;;;;6.18;4.90;;;8.10;99.90;;;;;;5049554;28;20041;-74
2022/11/17 11:25:42;;;;;;;5.80;4.20;;;8.10;99.90;;;;;;5049868;28;20045;-73
2022/11/17 11:28:32;;;;;;;5.40;4.00;;;8.20;99.90;;;;;;5050491;28;20037;-73
2022/11/17 11:31:23;;;;;;;5.00;4.35;;;8.30;99.90;;;;;;5050287;28;20045;-73
2022/11/17 11:34:19;;;;;;;4.55;4.00;;;8.40;99.90;;;;;;5050512;28;20443;-75
2022/11/17 11:37:07;;;;;;;4.15;3.75;;;8.40;99.90;;;;;;5050225;28;20041;-73
2022/11/17 11:39:57;;;;;;;4.78;4.07;;;8.40;99.90;;;;;;5050543;28;20556;-73
2022/11/17 11:42:44;;;;;;;4.53;4.07;;;8.40;99.90;;;;;;5050487;28;20583;-76
2022/11/17 11:45:47;;;;;;;4.25;3.70;;;8.50;99.90;;;;;;5050229;28;20506;-73
2022/11/17 11:48:24;;;;;;;4.90;3.70;;;8.60;99.90;;;;;;5050470;28;20037;-70
2022/11/17 11:51:02;;;;;;;4.28;3.85;;;8.60;99.90;;;;;;5050084;28;20045;-69
2022/11/17 11:53:37;;;;;;;6.15;4.80;;;8.60;99.90;;;;;;5051609;28;20132;-68
2022/11/17 11:56:08;;;;;;;5.03;4.53;;;8.70;99.90;;;;;;5049892;28;20048;-70
2022/11/17 11:58:39;;;;;;;5.15;4.10;;;8.70;99.90;;;;;;5050141;28;20045;-70
2022/11/17 12:01:07;;;;;;;5.60;4.57;;;8.70;99.90;;;;;;5051533;28;20078;-68
2022/11/17 12:03:40;;;;;;;5.65;4.72;;;8.80;99.90;;;;;;5049865;28;20045;-69
2022/11/17 12:06:38;;;;;;;7.18;4.20;;;8.80;99.90;;;;;;5049991;28;20052;-69
2022/11/17 12:09:07;;;;;;;4.55;4.13;;;8.80;99.90;;;;;;5051415;28;20444;-71
2022/11/17 12:14:18;;;;;;;10.02;3.88;;;8.90;99.90;;;;;;5049620;28;20048;-68
2022/11/17 12:16:46;;;;;;;4.60;3.58;;;9.00;99.90;;;;;;5049923;28;20091;-68
2022/11/17 12:19:47;;;;;;;4.75;4.03;;;9.10;99.90;;;;;;5051425;28;20404;-67
2022/11/17 12:22:28;;;;;;;5.30;3.88;;;9.10;99.90;;;;;;5050285;28;20056;-66
2022/11/17 12:25:04;;;;;;;6.03;4.15;;;9.10;99.90;;;;;;5049405;28;20502;-67
2022/11/17 12:27:33;;;;;;;5.90;3.85;;;9.10;99.90;;;;;;5051053;28;20033;-67
2022/11/17 12:30:00;;;;;;;7.13;4.65;;;9.20;99.90;;;;;;5050942;28;20045;-67
2022/11/17 12:32:52;;;;;;;6.00;4.55;;;9.30;99.90;;;;;;5049667;28;20037;-66
2022/11/17 12:35:31;;;;;;;5.43;4.13;;;9.30;99.90;;;;;;5050180;28;20067;-67
2022/11/17 12:38:15;;;;;;;4.82;3.97;;;9.40;99.90;;;;;;5049608;28;20049;-66
2022/11/17 12:40:50;;;;;;;5.03;3.53;;;9.40;99.90;;;;;;5050839;28;20048;-66
2022/11/17 12:43:18;;;;;;;7.82;3.38;;;9.50;99.90;;;;;;5050922;28;20094;-66
2022/11/17 12:45:58;;;;;;;5.43;3.05;;;9.60;99.90;;;;;;5050575;28;20544;-67
2022/11/17 12:48:29;;;;;;;4.07;2.80;;;9.70;99.90;;;;;;5051090;28;20440;-66
2022/11/17 12:51:35;;;;;;;4.35;2.78;;;9.70;99.90;;;;;;5050862;28;20048;-66
2022/11/17 12:54:20;;;;;;;5.50;2.65;;;9.70;99.90;;;;;;5049935;28;20045;-67
2022/11/17 12:57:12;;;;;;;5.82;2.85;;;9.80;99.90;;;;;;5049582;28;20049;-67
2022/11/17 13:00:04;;;;;;;5.32;2.60;;;9.80;99.90;;;;;;5048518;28;20041;-67
2022/11/17 13:03:01;;;;;;;5.43;2.60;;;9.90;99.90;;;;;;5050736;28;20045;-67
2022/11/17 13:05:29;;;;;;;2.47;2.28;;;9.90;99.90;;;;;;5050473;28;20057;-67
2022/11/17 13:08:12;;;;;;;5.45;2.60;;;9.90;99.90;;;;;;5050612;28;20075;-67
2022/11/17 13:10:37;;;;;;;6.28;2.50;;;9.90;99.90;;;;;;5050723;28;20706;-67
2022/11/17 13:13:39;;;;;;;5.55;2.50;;;9.90;99.90;;;;;;5050448;28;20051;-67
2022/11/17 13:16:04;;;;;;;6.72;3.78;;;10.00;99.90;;;;;;5027856;28;20045;-67
2022/11/17 13:18:40;;;;;;;4.40;2.38;;;10.00;99.90;;;;;;5045965;28;20049;-67
2022/11/17 13:21:24;;;;;;;4.38;2.40;;;10.00;99.90;;;;;;5050776;28;20129;-67
2022/11/17 13:23:50;;;;;;;5.93;2.22;;;10.00;99.90;;;;;;5048681;28;20073;-69
2022/11/17 13:26:15;;;;;;;4.70;2.70;;;10.00;99.90;;;;;;5050352;28;20516;-67
2022/11/17 13:28:42;;;;;;;8.07;3.03;;;10.00;99.90;;;;;;5050098;28;20045;-66
2022/11/17 13:31:16;;;;;;;7.18;2.15;;;10.00;99.90;;;;;;5050493;28;20033;-66
2022/11/17 13:33:42;;;;;;;6.35;2.55;;;10.00;99.90;;;;;;5050287;28;20041;-66
2022/11/17 13:36:18;;;;;;;2.40;2.10;;;10.00;99.90;;;;;;5050386;28;20045;-66
2022/11/17 13:38:51;;;;;;;5.10;3.05;;;10.00;99.90;;;;;;5050621;28;20147;-67
2022/11/17 13:41:18;;;;;;;4.40;2.58;;;10.00;99.90;;;;;;5050652;28;20192;-67
2022/11/17 13:43:45;;;;;;;6.00;2.72;;;10.00;99.90;;;;;;5049935;28;20095;-67